Flugplatz Bad Ditzenbach

Für EDPB sind keine METAR/TAF Berichte vorhanden.
Es werden die Flugwettermeldungen vom Flugplatz Stuttgart in 39 km Entfernung angezeigt.

Bericht für EDDS

vom 18.01. um 16:50 UTC

Wind 8 kt aus 250°

Sichtweite 10 km oder mehr

aufgebrochene Bewölkung in 4600 ft

Temperatur 2.0°C

Taupunkt -1.0°C

Luftfeuchtigkeit 80%

Luftdruck 1025 hPa

keine wesentliche Wetteränderung innerhalb den nächsten 2 Stunden zu erwarten

EDDS 181650Z 25008KT 200V270 9999 BKN046 02/M01 Q1025 NOSIG

Prognose für EDDS

vom 18.01. um 11:00 UTC

Zwischen 12:00 UTC und 12:00 UTC

Wind 5 kt aus 220°

Sichtweite 10 km oder mehr

aufgebrochene Bewölkung in 4000 ft

TAF EDDS 181100Z 1812/1912 22005KT 9999 BKN040
Impressum